Cebollita Spring, Valles Caldera, New Mexico Weather observations

Data are for 10 minute period ending at time listed.
 Day   Time   Solar   Ave.   Ave.  Ave.  Vector  Max.   Baro.   Total    
  of    of     Rad.   Air    Rel.  Wind   Wind   Wind  Press.  Precip.   
Year   Day            Temp.  Hum.  Speed  Dir.   Gust                    
2016   (MST)  Kw/m2    F      %     mph   deg.    mph    mb.     in.     
-------------------------------------------------------------------------
 211   22:30   0.00   48.9    99    1.5    68     3.0   99999.0    0.00 
 211   22:40   0.00   49.1    98    1.0    72     3.0   99999.0    0.00 
 211   22:50   0.00   49.3    98    2.5   345     5.4   99999.0    0.00 
 211   23:00   0.00   49.3    99    1.5    61     3.0   99999.0    0.00 
 211   23:10   0.00   49.0    98    0.0     0     0.0   99999.0    0.00 
 211   23:20   0.00   48.6    98    1.0    86     3.0   99999.0    0.00 
 211   23:30   0.00   48.3    98    1.3    86     2.4   99999.0    0.00 
 211   23:40   0.00   48.5    99    2.2    86     4.8   99999.0    0.00 
 211   23:50   0.00   49.1    95    3.7   100     7.8   99999.0    0.00 
 212    0:00   0.00   50.8    86    3.9    31     7.2   99999.0    0.00 
 212    0:10   0.00   52.4    79    3.2     8     4.8   99999.0    0.00 
 212    0:20   0.00   52.1    82    2.5    52     4.2   99999.0    0.00 
 212    0:30   0.00   51.4    86    1.2    28     3.6   99999.0    0.00 
 212    0:40   0.00   51.0    90    0.1    81     1.8   99999.0    0.00 
 212    0:50   0.00   50.8    91    2.3   111     3.6   99999.0    0.00 
 212    1:00   0.00   50.8    91    2.4    37     5.4   99999.0    0.00 
 212    1:10   0.00   51.2    88    2.4    18     4.8   99999.0    0.00 
 212    1:20   0.00   51.5    86    0.7   117     3.0   99999.0    0.00 
 212    1:30   0.00   50.8    83    0.1    19     1.2   99999.0    0.00 
 212    1:40   0.00   49.7    88    1.4    73     3.0   99999.0    0.00 
 212    1:50   0.00   48.5    94    0.2    69     1.8   99999.0    0.00 
 212    2:00   0.00   47.6    95    0.4    70     1.8   99999.0    0.00 
 212    2:10   0.00   46.8    97    0.9    68     2.4   99999.0    0.00 
 212    2:20   0.00   46.1    98    0.7    61     3.0   99999.0    0.00 
 212    2:30   0.00   45.5    98    1.1    70     3.0   99999.0    0.00 
 212    2:40   0.00   45.2    99    1.6    67     3.0   99999.0    0.00 
 212    2:50   0.00   45.1    99    1.5    61     3.0   99999.0    0.00 
 212    3:00   0.00   44.7    99    1.7    69     3.6   99999.0    0.00 
 212    3:10   0.00   44.4    99    1.2    69     2.4   99999.0    0.00 
 212    3:20   0.00   44.3   100    2.3    70     3.6   99999.0    0.00 
 212    3:30   0.00   44.2   100    1.3    63     3.0   99999.0    0.00 
 212    3:40   0.00   44.1   100    0.9    57     3.0   99999.0    0.00 
 212    3:50   0.00   43.9   100    1.9    69     3.6   99999.0    0.00 
 212    4:00   0.00   43.7   100    1.4    64     2.4   99999.0    0.00 
 212    4:10   0.00   43.5   100    1.2    61     2.4   99999.0    0.00 
 212    4:20   0.00   43.4   100    1.3    64     2.4   99999.0    0.00 
 212    4:30   0.00   43.3   100    1.8    67     3.6   99999.0    0.00 
 212    4:40   0.00   43.2   100    1.3    63     3.6   99999.0    0.00 
 212    4:50   0.00   43.2   100    1.6    63     2.4   99999.0    0.00 
 212    5:00   0.00   43.0   100    1.7    69     3.0   99999.0    0.00 
 212    5:10   0.00   43.0   100    1.1    72     2.4   99999.0    0.00 
 212    5:20   0.01   43.0   100    1.1    66     2.4   99999.0    0.00 
 212    5:30   0.01   43.2   100    0.6    71     2.4   99999.0    0.00 
 212    5:40   0.02   43.5   100    0.3    69     2.4   99999.0    0.00 
 212    5:50   0.03   43.8   100    1.7    71     3.0   99999.0    0.00 
 212    6:00   0.05   44.3   100    0.2    56     2.4   99999.0    0.00 
 212    6:10   0.09   45.1   100    0.6    74     2.4   99999.0    0.00 
 212    6:20   0.08   46.1   100    0.0    57     1.2   99999.0    0.00 
 212    6:30   0.05   47.3   100    0.0   346     1.2   99999.0    0.00 
 212    6:40   0.05   48.9   100    1.8   342     3.6   99999.0    0.00 
 212    6:50   0.23   50.7   100    0.0   333     1.2   99999.0    0.00 
 212    7:00   0.34   52.4    99    0.2   346     1.8   99999.0    0.00 
 212    7:10   0.38   54.6    92    0.4   294     1.8   99999.0    0.00 
 212    7:20   0.42   57.5    72    0.8   290     2.4   99999.0    0.00 
 212    7:30   0.46   60.0    61    1.1   269     2.4   99999.0    0.00 
 212    7:40   0.50   62.6    52    1.6   166     7.2   99999.0    0.00 
 212    7:50   0.54   65.1    48    3.2   181     7.8   99999.0    0.00 
 212    8:00   0.57   66.1    47    3.0   162     8.4   99999.0    0.00 
 212    8:10   0.61   66.9    44    3.9   181     7.8   99999.0    0.00 
 212    8:20   0.65   67.3    43    3.4   161     7.8   99999.0    0.00 
 212    8:30   0.68   68.1    41    3.5   182     9.0   99999.0    0.00 
 212    8:40   0.71   68.6    41    3.2   150     7.2   99999.0    0.00 
 212    8:50   0.75   69.0    39    4.6   184    10.2   99999.0    0.00 
 212    9:00   0.78   69.8    40    3.9   148     7.8   99999.0    0.00 
 212    9:10   0.81   70.1    40    4.1   139    10.8   99999.0    0.00 
 212    9:20   0.84   69.7    40    5.0   136     9.9   99999.0    0.00 
 212    9:30   0.87   70.3    40    5.2   136    11.9   99999.0    0.00 
 212    9:40   0.90   70.2    39    5.7   131    10.8   99999.0    0.00 
 212    9:50   0.92   70.6    40    4.7   156     9.0   99999.0    0.00 
 212   10:00   0.95   71.2    39    5.5   169    10.2   99999.0    0.00 
 212   10:10   0.96   71.2    38    5.4   134    10.2   99999.0    0.00 
 212   10:20   0.99   71.7    37    4.2   165     8.1   99999.0    0.00 
 212   10:30   0.97   72.1    37    4.9   134     9.0   99999.0    0.00 
 212   10:40   1.01   72.0    38    4.5   184    10.2   99999.0    0.00 
 212   10:50   1.03   73.5    35    4.3   145     9.0   99999.0    0.00 
 212   11:00   1.05   72.8    36    5.3   154    11.3   99999.0    0.00 
 212   11:10   1.06   73.7    36    4.2   115    10.8   99999.0    0.00 
 212   11:20   1.06   74.5    34    4.7   119     9.0   99999.0    0.00 
 212   11:30   1.07   74.4    35    4.3   167     8.4   99999.0    0.00 
 212   11:40   1.07   75.7    34    3.5   118     7.8   99999.0    0.00 
 212   11:50   1.09   75.7    34    4.7   182     9.0   99999.0    0.00 
 212   12:00   1.08   76.4    33    4.4   126     9.6   99999.0    0.00 
 212   12:10   1.07   76.7    33    5.3   144    10.2   99999.0    0.00 
 212   12:20   1.09   77.8    32    4.4   212     9.0   99999.0    0.00 
 212   12:30   1.03   78.1    32    5.1   195     9.0   99999.0    0.00 
 212   12:40   1.08   77.9    32    4.3   161    10.2   99999.0    0.00 
 212   12:50   1.07   78.2    31    4.3   140     8.4   99999.0    0.00 
 212   13:00   1.04   78.4    31    5.1   171    10.2   99999.0    0.00 
 212   13:10   1.05   78.1    31    5.1   168     9.0   99999.0    0.00 
 212   13:20   1.04   78.8    31    5.2   144    10.8   99999.0    0.00 
 212   13:30   1.03   78.8    31    5.4   166    10.8   99999.0    0.00 
 212   13:40   1.02   79.7    29    4.6   170    10.8   99999.0    0.00 
 212   13:50   1.01   80.2    29    5.4   172    10.2   99999.0    0.00 
 212   14:00   1.00   80.0    28    4.8   166     9.6   99999.0    0.00 
 212   14:10   0.99   80.4    27    4.8   170     9.0   99999.0    0.00 
 212   14:20   0.97   80.6    27    6.4   166    10.8   99999.0    0.00 
 212   14:30   0.95   80.9    27    5.5   172    13.1   99999.0    0.00 
 212   14:40   0.95   81.6    25    5.6   141    11.9   99999.0    0.00 
 212   14:50   0.95   82.1    24    5.1   174    11.9   99999.0    0.00 
 212   15:00   0.93   82.0    25    5.8   162    11.3   99999.0    0.00 
 212   15:10   0.91   82.2    24    6.9   141    13.7   99999.0    0.00 
 212   15:20   0.69   82.0    23    7.1   142    13.1   99999.0    0.00 
 212   15:30   0.28   79.0    22    6.6    90    13.1   99999.0    0.00 
 212   15:40   0.74   79.0    22    6.4    70    13.1   99999.0    0.00 
 212   15:50   0.61   80.3    21    6.6    45    13.1   99999.0    0.00 
 212   16:00   0.35   78.5    21    6.3    74    10.8   99999.0    0.00 
 212   16:10   0.32   77.9    23    4.3   102     7.8   99999.0    0.00 
 212   16:20   0.45   78.3    24    4.9   102     9.0   99999.0    0.00 
 212   16:30   0.23   77.5    25    4.6   126     9.0   99999.0    0.00 
 212   16:40   0.19   76.7    26    3.4   162     7.2   99999.0    0.00 
 212   16:50   0.14   76.5    26    3.6   213     8.4   99999.0    0.00 
 212   17:00   0.06   73.7    30    6.4     4    17.3   99999.0    0.00 
 212   17:10   0.04   69.2    34    6.0    15    17.3   99999.0    0.00 
 212   17:20   0.02   66.9    37    6.4    18    17.3   99999.0    0.00 
 212   17:30   0.01   66.1    40    5.2   330    11.3   99999.0    0.00 
 212   17:40   0.01   65.2    42    8.7   329    17.3   99999.0    0.00 
 212   17:50   0.00   64.4    44    9.5   348    19.7   99999.0    0.00 
 212   18:00   0.00   63.0    48    9.1   343    21.5   99999.0    0.00 
 212   18:10   0.00   61.0    57    9.2   287    19.7   99999.0    0.00 
 212   18:20   0.00   59.6    68    6.3   290    12.5   99999.0    0.01 
 212   18:30   0.01   56.2    88    2.5   262     7.2   99999.0    0.00 
 212   18:40   0.02   55.6    93    2.9     2     6.6   99999.0    0.01 
 212   18:50   0.01   55.6    95    2.6    18     5.4   99999.0    0.01 
 212   19:00   0.01   55.0    97    2.6    26     4.8   99999.0    0.00 
 212   19:10   0.01   54.9    97    5.2    13     9.6   99999.0    0.01 
 212   19:20   0.00   54.8    92    5.0    42     9.0   99999.0    0.00 
 212   19:30   0.00   55.2    82    4.7    36    12.8   99999.0    0.00 
 212   19:40   0.00   55.8    76    5.3    20    10.2   99999.0    0.00 
 212   19:50   0.00   56.8    70    3.5    29     9.6   99999.0    0.00 
 212   20:00   0.00   57.4    70    2.6   356     6.0   99999.0    0.00 
 212   20:10   0.00   56.6    76    4.0   316     9.0   99999.0    0.00 
 212   20:20   0.00   56.8    74    3.6    13     7.8   99999.0    0.00 
 212   20:30   0.00   56.9    74    4.0    17     7.8   99999.0    0.00 
 212   20:40   0.00   57.4    73    2.9    57     6.0   99999.0    0.00 
 212   20:50   0.00   56.7    80    1.2    51     4.2   99999.0    0.00 
 212   21:00   0.00   55.7    89    3.0   128    13.7   99999.0    0.00 
 212   21:10   0.00   56.7    73    5.1   142    11.3   99999.0    0.00 
 212   21:20   0.00   58.2    66    3.2   162     9.0   99999.0    0.00 
 212   21:30   0.00   58.1    69    2.3   318     3.6   99999.0    0.00 
 212   21:40   0.00   57.3    73    1.0   255     2.4   99999.0    0.00 
 212   21:50   0.00   57.0    74    0.7   219     3.0   99999.0    0.00 
 212   22:00   0.00   56.8    77    1.3   111     4.2   99999.0    0.00 
 212   22:10   0.00   56.8    78    0.8   192     2.4   99999.0    0.00 
 212   22:20   0.00   56.6    79    0.4   119     3.0   99999.0    0.00 

Return to Cebollita Spring, Valles Caldera graphs page.


Western Regional Climate Center,wrcc@dri.edu